Time;durP1;ratioP1;P1;durP2;ratioP2;P2;SDS_P1;SDS_P2;PMS_P1;PMS_P2;Temp;Humidity;BMP_temperature;BMP_pressure;BME280_temperature;BME280_humidity;BME280_pressure;Samples;Min_cycle;Max_cycle;Signal;HPM_P1;HPM_P2
2022/04/06 00:02:01;;;;;;;;;;;;;;;2.05;98.18;99369.44;5031496;28;807;-56
2022/04/06 00:04:28;;;;;;;;;;;;;;;2.16;98.46;99364.22;5031528;28;818;-56
2022/04/06 00:06:55;;;;;;;;;;;;;;;2.20;98.61;99367.81;5031442;28;814;-55
2022/04/06 00:09:22;;;;;;;;;;;;;;;2.15;98.04;99368.06;5031383;28;956;-56
2022/04/06 00:11:49;;;;;;;;;;;;;;;2.09;97.61;99373.03;5031573;28;1090;-56
2022/04/06 00:14:16;;;;;;;;;;;;;;;2.04;97.33;99371.34;5031468;28;830;-56
2022/04/06 00:16:43;;;;;;;;;;;;;;;2.10;97.61;99374.59;5031151;28;1941;-56
2022/04/06 00:19:10;;;;;;;;;;;;;;;2.25;98.96;99371.03;5031250;28;911;-56
2022/04/06 00:21:37;;;;;;;;;;;;;;;2.32;98.31;99375.84;5031296;28;1002;-56
2022/04/06 00:24:03;;;;;;;;;;;;;;;2.25;97.72;99376.47;5031334;28;848;-56
2022/04/06 00:26:30;;;;;;;;;;;;;;;2.12;96.63;99379.69;5031310;28;1355;-56
2022/04/06 00:28:57;;;;;;;;;;;;;;;2.15;98.45;99381.69;5031290;28;858;-56
2022/04/06 00:31:24;;;;;;;;;;;;;;;2.23;98.57;99388.88;5031209;28;893;-56
2022/04/06 00:33:51;;;;;;;;;;;;;;;2.33;98.75;99388.34;5031210;28;830;-56
2022/04/06 00:36:18;;;;;;;;;;;;;;;2.38;98.79;99390.00;5031212;28;1910;-56
2022/04/06 00:38:44;;;;;;;;;;;;;;;2.41;98.62;99386.53;5033072;28;871;-56
2022/04/06 00:41:11;;;;;;;;;;;;;;;2.47;98.81;99395.25;5035047;28;826;-56
2022/04/06 00:43:37;;;;;;;;;;;;;;;2.31;98.02;99398.81;5034940;28;914;-56
2022/04/06 00:46:04;;;;;;;;;;;;;;;2.01;97.04;99398.53;5034869;28;799;-57
2022/04/06 00:48:30;;;;;;;;;;;;;;;2.00;99.18;99392.28;5034874;28;963;-56
2022/04/06 00:50:57;;;;;;;;;;;;;;;2.09;100.00;99383.13;5034731;28;934;-56
2022/04/06 00:53:24;;;;;;;;;;;;;;;2.17;100.00;99390.31;5034861;28;920;-55
2022/04/06 00:55:52;;;;;;;;;;;;;;;2.29;100.00;99392.13;5034616;28;1882;-56
2022/04/06 00:58:18;;;;;;;;;;;;;;;2.21;100.00;99396.63;5034771;28;886;-56
2022/04/06 01:00:44;;;;;;;;;;;;;;;2.43;100.00;99386.97;5034665;28;834;-56
2022/04/06 01:03:11;;;;;;;;;;;;;;;2.72;100.00;99399.28;5034597;28;807;-56
2022/04/06 01:05:38;;;;;;;;;;;;;;;2.86;100.00;99396.03;5034614;28;893;-56
2022/04/06 01:08:05;;;;;;;;;;;;;;;2.90;100.00;99393.38;5034693;28;862;-56
2022/04/06 01:10:32;;;;;;;;;;;;;;;2.99;99.01;99396.69;5034794;28;819;-56
2022/04/06 01:12:59;;;;;;;;;;;;;;;2.99;98.15;99400.19;5034280;28;966;-56
2022/04/06 01:15:26;;;;;;;;;;;;;;;3.05;98.22;99387.00;5034249;28;1890;-57
2022/04/06 01:17:54;;;;;;;;;;;;;;;3.05;97.30;99389.75;5034324;28;1223;-57
2022/04/06 01:20:20;;;;;;;;;;;;;;;2.96;96.21;99394.66;5034352;28;898;-56
2022/04/06 01:22:48;;;;;;;;;;;;;;;2.83;95.80;99394.81;5032944;28;1199;-56
2022/04/06 01:25:14;;;;;;;;;;;;;;;2.66;95.92;99390.56;5034425;28;1017;-56
2022/04/06 01:27:41;;;;;;;;;;;;;;;2.53;96.66;99402.00;5034002;28;1280;-57
2022/04/06 01:30:08;;;;;;;;;;;;;;;2.47;96.49;99393.28;5034212;28;884;-56
2022/04/06 01:32:36;;;;;;;;;;;;;;;2.42;96.64;99396.31;5034263;28;857;-56
2022/04/06 01:35:03;;;;;;;;;;;;;;;2.38;96.25;99395.44;5034009;28;1083;-57
2022/04/06 01:37:31;;;;;;;;;;;;;;;2.32;96.50;99394.16;5033915;28;1910;-56
2022/04/06 01:39:57;;;;;;;;;;;;;;;2.30;97.30;99399.16;5034232;28;931;-56
2022/04/06 01:42:23;;;;;;;;;;;;;;;2.27;97.12;99397.16;5033888;28;877;-56
2022/04/06 01:44:51;;;;;;;;;;;;;;;2.32;97.19;99396.88;5033769;28;842;-56
2022/04/06 01:47:18;;;;;;;;;;;;;;;2.33;96.97;99398.47;5034034;28;893;-57
2022/04/06 01:52:31;;;;;;;;;;;;;;;2.47;97.02;99398.75;5034056;28;625;-57
2022/04/06 01:55:03;;;;;;;;;;;;;;;2.52;96.72;99405.84;5033674;28;839;-56
2022/04/06 01:57:30;;;;;;;;;;;;;;;2.54;96.03;99401.66;5033554;28;1903;-57
2022/04/06 01:59:57;;;;;;;;;;;;;;;2.53;96.60;99396.53;5033714;28;835;-57
2022/04/06 02:02:26;;;;;;;;;;;;;;;2.56;96.38;99398.53;5033529;28;873;-57
2022/04/06 02:04:53;;;;;;;;;;;;;;;2.57;96.38;99402.84;5033438;28;919;-57
2022/04/06 02:07:20;;;;;;;;;;;;;;;2.65;96.29;99401.88;5033462;28;815;-57
2022/04/06 02:09:46;;;;;;;;;;;;;;;2.72;96.08;99402.00;5033434;28;810;-56
2022/04/06 02:12:13;;;;;;;;;;;;;;;2.76;96.16;99404.81;5033373;28;819;-57
2022/04/06 02:14:41;;;;;;;;;;;;;;;2.78;95.83;99403.28;5033239;28;873;-56
2022/04/06 02:17:08;;;;;;;;;;;;;;;2.80;96.15;99405.66;5033202;28;1969;-56
2022/04/06 02:19:39;;;;;;;;;;;;;;;2.70;95.43;99412.47;5033283;28;882;-56
2022/04/06 02:22:06;;;;;;;;;;;;;;;2.54;95.78;99404.38;5033118;28;875;-56
2022/04/06 02:24:33;;;;;;;;;;;;;;;2.44;96.64;99410.38;5033169;28;949;-56
2022/04/06 02:27:01;;;;;;;;;;;;;;;2.40;95.89;99407.56;5032967;28;1423;-57
2022/04/06 02:29:28;;;;;;;;;;;;;;;2.42;96.26;99413.47;5033776;28;834;-56
2022/04/06 02:31:53;;;;;;;;;;;;;;;2.40;96.88;99409.53;5033019;28;866;-56
2022/04/06 02:34:20;;;;;;;;;;;;;;;2.39;97.22;99416.09;5032835;28;867;-56
2022/04/06 02:36:47;;;;;;;;;;;;;;;2.33;96.96;99410.16;5032803;28;1975;-56
2022/04/06 02:39:14;;;;;;;;;;;;;;;2.18;97.02;99419.97;5032821;28;873;-56
2022/04/06 02:41:41;;;;;;;;;;;;;;;1.95;96.25;99419.03;5032920;28;834;-56
2022/04/06 02:44:08;;;;;;;;;;;;;;;1.79;97.10;99416.31;5032522;28;893;-56
2022/04/06 02:46:34;;;;;;;;;;;;;;;1.98;98.46;99419.09;5033033;28;811;-56
2022/04/06 02:49:02;;;;;;;;;;;;;;;2.10;98.61;99428.34;5032629;28;874;-56
2022/04/06 02:51:29;;;;;;;;;;;;;;;2.11;98.55;99430.69;5032567;28;866;-56
2022/04/06 02:53:55;;;;;;;;;;;;;;;2.16;98.66;99424.19;5032486;28;1027;-56
2022/04/06 02:56:22;;;;;;;;;;;;;;;2.26;98.56;99415.44;5032454;28;1918;-56
2022/04/06 02:58:49;;;;;;;;;;;;;;;2.37;98.23;99423.84;5032450;28;857;-56
2022/04/06 03:01:16;;;;;;;;;;;;;;;2.36;97.93;99425.78;5031658;28;855;-56
2022/04/06 03:03:42;;;;;;;;;;;;;;;2.34;98.10;99432.75;5032373;28;787;-56
2022/04/06 03:06:09;;;;;;;;;;;;;;;2.32;98.14;99429.59;5032388;28;850;-56
2022/04/06 03:08:35;;;;;;;;;;;;;;;2.36;97.37;99435.91;5032327;28;823;-56
2022/04/06 03:11:03;;;;;;;;;;;;;;;2.31;97.82;99439.72;5032213;28;854;-56
2022/04/06 03:13:29;;;;;;;;;;;;;;;2.29;97.49;99442.00;5032096;28;811;-56
2022/04/06 03:15:56;;;;;;;;;;;;;;;2.21;97.51;99443.78;5032073;28;1877;-56
2022/04/06 03:18:23;;;;;;;;;;;;;;;1.97;96.13;99446.72;5032239;28;850;-55
2022/04/06 03:20:50;;;;;;;;;;;;;;;1.83;96.67;99442.53;5032049;28;845;-55
2022/04/06 03:23:16;;;;;;;;;;;;;;;1.80;97.00;99434.25;5032058;28;1017;-56
2022/04/06 03:25:43;;;;;;;;;;;;;;;1.73;97.83;99443.06;5031955;28;1212;-56
2022/04/06 03:28:09;;;;;;;;;;;;;;;1.68;98.22;99440.56;5031991;28;802;-56
2022/04/06 03:30:36;;;;;;;;;;;;;;;1.66;98.39;99436.63;5031928;28;818;-56
2022/04/06 03:33:04;;;;;;;;;;;;;;;1.58;97.46;99439.19;5031879;28;925;-56
2022/04/06 03:35:31;;;;;;;;;;;;;;;1.46;97.31;99435.75;5031631;28;1906;-55
2022/04/06 03:37:57;;;;;;;;;;;;;;;1.48;98.70;99438.91;5030568;28;1305;-56
2022/04/06 03:40:24;;;;;;;;;;;;;;;1.66;99.35;99437.41;5032094;28;889;-56
2022/04/06 03:42:51;;;;;;;;;;;;;;;1.73;99.26;99443.06;5031756;28;877;-56
2022/04/06 03:45:18;;;;;;;;;;;;;;;1.56;97.51;99444.19;5031688;28;799;-55
2022/04/06 03:47:45;;;;;;;;;;;;;;;1.51;98.43;99444.44;5031910;28;818;-56
2022/04/06 03:50:12;;;;;;;;;;;;;;;1.59;98.55;99443.47;5031622;28;802;-55
2022/04/06 03:52:39;;;;;;;;;;;;;;;1.65;98.81;99444.00;5031636;28;886;-56
2022/04/06 03:55:07;;;;;;;;;;;;;;;1.72;99.09;99437.94;5030438;28;811;-56
2022/04/06 03:57:34;;;;;;;;;;;;;;;1.77;98.92;99443.94;5031470;28;1949;-56
2022/04/06 04:00:04;;;;;;;;;;;;;;;1.78;98.49;99452.88;5031503;28;914;-55
2022/04/06 04:02:31;;;;;;;;;;;;;;;1.70;98.29;99446.47;5031393;28;898;-55
2022/04/06 04:04:58;;;;;;;;;;;;;;;1.62;98.91;99450.16;5031430;28;929;-56
2022/04/06 04:07:25;;;;;;;;;;;;;;;1.57;98.85;99445.75;5031482;28;1041;-56
2022/04/06 04:09:52;;;;;;;;;;;;;;;1.53;99.39;99454.97;5031487;28;889;-56
2022/04/06 04:12:19;;;;;;;;;;;;;;;1.62;100.00;99455.59;5032462;28;854;-56
2022/04/06 04:14:46;;;;;;;;;;;;;;;1.64;100.00;99456.03;5035571;28;897;-56
2022/04/06 04:17:13;;;;;;;;;;;;;;;1.77;100.00;99463.00;5035621;28;1953;-56
2022/04/06 04:19:39;;;;;;;;;;;;;;;2.18;100.00;99462.81;5035713;28;830;-56
2022/04/06 04:22:06;;;;;;;;;;;;;;;2.54;100.00;99469.03;5035402;28;873;-56
2022/04/06 04:24:33;;;;;;;;;;;;;;;2.69;100.00;99464.69;5035237;28;946;-56
2022/04/06 04:27:00;;;;;;;;;;;;;;;2.66;100.00;99458.00;5035020;28;1328;-56
2022/04/06 04:29:26;;;;;;;;;;;;;;;2.66;100.00;99471.66;5035305;28;810;-56
2022/04/06 04:31:53;;;;;;;;;;;;;;;2.79;100.00;99475.81;5035220;28;811;-56
2022/04/06 04:34:20;;;;;;;;;;;;;;;3.11;100.00;99483.09;5035193;28;818;-56
2022/04/06 04:36:46;;;;;;;;;;;;;;;3.53;100.00;99488.59;5035102;28;1910;-55
2022/04/06 04:39:13;;;;;;;;;;;;;;;4.10;100.00;99491.53;5035128;28;874;-56
2022/04/06 04:41:39;;;;;;;;;;;;;;;4.63;100.00;99491.53;5034991;28;861;-56
2022/04/06 04:44:06;;;;;;;;;;;;;;;4.96;98.45;99492.75;5035214;28;858;-56
2022/04/06 04:46:32;;;;;;;;;;;;;;;5.53;98.07;99490.66;5035054;28;818;-56
2022/04/06 04:48:59;;;;;;;;;;;;;;;6.71;94.91;99498.31;5034867;28;835;-57
2022/04/06 04:51:25;;;;;;;;;;;;;;;7.76;86.06;99498.28;5034878;28;881;-57
2022/04/06 04:53:52;;;;;;;;;;;;;;;7.66;80.25;99496.31;5034770;28;815;-57
2022/04/06 04:56:19;;;;;;;;;;;;;;;6.94;77.71;99506.28;5034715;28;1951;-57
2022/04/06 04:58:44;;;;;;;;;;;;;;;6.61;77.93;99505.28;5034664;28;949;-57
2022/04/06 05:01:11;;;;;;;;;;;;;;;6.98;76.88;99520.00;5034757;28;881;-57
2022/04/06 05:03:37;;;;;;;;;;;;;;;7.59;75.25;99518.28;5034628;28;946;-57
2022/04/06 05:06:05;;;;;;;;;;;;;;;8.14;71.82;99514.44;5034681;28;834;-56
2022/04/06 05:08:32;;;;;;;;;;;;;;;8.12;69.78;99514.06;5034791;28;937;-57
2022/04/06 05:10:59;;;;;;;;;;;;;;;7.88;70.12;99524.66;5034395;28;823;-57
2022/04/06 05:13:25;;;;;;;;;;;;;;;7.95;71.64;99519.13;5034587;28;818;-57
2022/04/06 05:15:52;;;;;;;;;;;;;;;8.11;70.49;99518.78;5034246;28;1886;-57
2022/04/06 05:18:19;;;;;;;;;;;;;;;8.54;69.15;99529.81;5034430;28;934;-57
2022/04/06 05:20:46;;;;;;;;;;;;;;;8.69;68.02;99533.31;5034340;28;813;-57
2022/04/06 05:23:13;;;;;;;;;;;;;;;8.79;67.72;99540.78;5034109;28;902;-56
2022/04/06 05:25:40;;;;;;;;;;;;;;;8.85;67.55;99541.16;5033477;28;1254;-56
2022/04/06 05:28:08;;;;;;;;;;;;;;;8.94;67.64;99541.56;5034142;28;882;-57
2022/04/06 05:30:34;;;;;;;;;;;;;;;9.15;67.29;99548.16;5034421;28;937;-57
2022/04/06 05:33:01;;;;;;;;;;;;;;;9.20;66.44;99543.03;5034044;28;865;-57
2022/04/06 05:35:27;;;;;;;;;;;;;;;9.61;66.38;99536.16;5034103;28;790;-57
2022/04/06 05:37:57;;;;;;;;;;;;;;;10.30;64.28;99534.53;5032672;28;1910;-56
2022/04/06 05:40:24;;;;;;;;;;;;;;;10.53;62.55;99542.25;5033894;28;861;-56
2022/04/06 05:42:51;;;;;;;;;;;;;;;10.59;62.13;99543.38;5033913;28;870;-57
2022/04/06 05:45:17;;;;;;;;;;;;;;;10.82;62.10;99539.22;5033872;28;810;-56
2022/04/06 05:47:44;;;;;;;;;;;;;;;11.13;61.85;99542.81;5033699;28;963;-55
2022/04/06 05:50:12;;;;;;;;;;;;;;;11.64;60.69;99535.47;5033729;28;887;-56
2022/04/06 05:52:39;;;;;;;;;;;;;;;12.56;58.36;99542.81;5033685;28;921;-55
2022/04/06 05:55:06;;;;;;;;;;;;;;;13.02;55.42;99545.97;5033709;28;890;-57
2022/04/06 05:57:33;;;;;;;;;;;;;;;13.60;54.88;99543.63;5033712;28;1890;-57
2022/04/06 05:59:58;;;;;;;;;;;;;;;14.24;53.32;99546.94;5033656;28;834;-57
2022/04/06 06:02:25;;;;;;;;;;;;;;;14.43;52.29;99552.88;5033515;28;928;-57
2022/04/06 06:04:52;;;;;;;;;;;;;;;14.16;52.29;99556.66;5033592;28;814;-57
2022/04/06 06:07:20;;;;;;;;;;;;;;;13.50;53.52;99555.72;5033535;28;810;-57
2022/04/06 06:09:47;;;;;;;;;;;;;;;12.77;57.75;99554.75;5033299;28;799;-57
2022/04/06 06:12:14;;;;;;;;;;;;;;;12.66;57.65;99555.72;5033400;28;846;-57
2022/04/06 06:14:41;;;;;;;;;;;;;;;12.65;57.82;99551.38;5033315;28;826;-57
2022/04/06 06:17:08;;;;;;;;;;;;;;;12.72;58.02;99550.47;5031956;28;1885;-57
2022/04/06 06:19:34;;;;;;;;;;;;;;;13.05;57.26;99547.88;5033243;28;826;-57
2022/04/06 06:22:01;;;;;;;;;;;;;;;13.44;57.78;99551.88;5031839;28;2172;-56
2022/04/06 06:24:28;;;;;;;;;;;;;;;14.07;54.12;99553.72;5031792;28;1592;-57
2022/04/06 06:26:55;;;;;;;;;;;;;;;14.28;52.71;99549.66;5033019;28;1203;-57
2022/04/06 06:29:22;;;;;;;;;;;;;;;14.67;53.20;99559.81;5032965;28;931;-57
2022/04/06 06:31:49;;;;;;;;;;;;;;;15.02;52.29;99553.75;5032928;28;1027;-56
2022/04/06 06:34:16;;;;;;;;;;;;;;;14.94;53.73;99552.41;5033007;28;901;-56
2022/04/06 06:36:43;;;;;;;;;;;;;;;15.32;50.97;99555.31;5031735;28;1898;-56
2022/04/06 06:39:09;;;;;;;;;;;;;;;15.48;51.40;99555.25;5032747;28;847;-56
2022/04/06 06:41:35;;;;;;;;;;;;;;;16.04;49.21;99556.00;5032760;28;941;-56
2022/04/06 06:44:02;;;;;;;;;;;;;;;16.45;49.28;99548.72;5032790;28;819;-56
2022/04/06 06:46:32;;;;;;;;;;;;;;;16.50;47.55;99560.09;5032590;28;902;-56
2022/04/06 06:49:04;;;;;;;;;;;;;;;16.54;47.10;99554.41;5032796;28;822;-56
2022/04/06 06:51:31;;;;;;;;;;;;;;;16.67;46.36;99562.75;5032471;28;1035;-55
2022/04/06 06:53:59;;;;;;;;;;;;;;;16.73;46.62;99564.50;5032584;28;834;-56
2022/04/06 06:56:26;;;;;;;;;;;;;;;16.98;47.43;99557.31;5031175;28;1886;-56
2022/04/06 06:58:52;;;;;;;;;;;;;;;17.58;45.45;99556.38;5032543;28;842;-56
2022/04/06 07:01:19;;;;;;;;;;;;;;;17.72;44.10;99560.63;5032475;28;849;-56
2022/04/06 07:03:45;;;;;;;;;;;;;;;18.14;44.11;99558.22;5032507;28;869;-56
2022/04/06 07:06:12;;;;;;;;;;;;;;;18.28;43.98;99559.63;5032385;28;889;-56
2022/04/06 07:08:39;;;;;;;;;;;;;;;18.21;44.59;99567.56;5032077;28;906;-56
2022/04/06 07:11:06;;;;;;;;;;;;;;;17.84;43.20;99567.41;5032643;28;810;-56
2022/04/06 07:13:33;;;;;;;;;;;;;;;17.61;44.55;99571.44;5032143;28;938;-57
2022/04/06 07:16:00;;;;;;;;;;;;;;;17.77;44.50;99571.19;5032176;28;1881;-57
2022/04/06 07:18:27;;;;;;;;;;;;;;;17.73;45.57;99574.16;5032048;28;901;-56
2022/04/06 07:20:54;;;;;;;;;;;;;;;17.90;44.08;99568.34;5031947;28;949;-57
2022/04/06 07:23:19;;;;;;;;;;;;;;;18.11;44.33;99573.09;5032356;28;854;-57
2022/04/06 07:25:46;;;;;;;;;;;;;;;18.48;43.92;99580.88;5031679;28;1400;-57
2022/04/06 07:28:13;;;;;;;;;;;;;;;18.73;43.33;99571.41;5031930;28;942;-57
2022/04/06 07:30:40;;;;;;;;;;;;;;;18.85;43.38;99580.94;5031909;28;819;-57
2022/04/06 07:33:09;;;;;;;;;;;;;;;19.11;42.34;99579.41;5031982;28;839;-57
2022/04/06 07:35:37;;;;;;;;;;;;;;;19.20;42.78;99583.44;5032047;28;1973;-57
2022/04/06 07:38:04;;;;;;;;;;;;;;;19.16;42.75;99581.59;5031733;28;914;-57
2022/04/06 07:40:30;;;;;;;;;;;;;;;19.58;42.12;99578.09;5031866;28;845;-57
2022/04/06 07:42:57;;;;;;;;;;;;;;;19.50;41.20;99578.91;5031718;28;810;-57
2022/04/06 07:45:24;;;;;;;;;;;;;;;19.69;41.39;99583.22;5031713;28;787;-56
2022/04/06 07:47:51;;;;;;;;;;;;;;;20.07;41.16;99567.88;5031364;28;806;-57
2022/04/06 07:50:19;;;;;;;;;;;;;;;20.44;40.35;99570.53;5031967;28;856;-57
2022/04/06 07:52:46;;;;;;;;;;;;;;;20.80;39.91;99577.19;5031590;28;934;-57
2022/04/06 07:55:14;;;;;;;;;;;;;;;20.87;37.98;99565.59;5031669;28;865;-57
2022/04/06 07:57:42;;;;;;;;;;;;;;;20.71;39.38;99577.25;5031409;28;1910;-57
2022/04/06 08:00:11;;;;;;;;;;;;;;;21.03;38.35;99572.03;5031547;28;847;-56
2022/04/06 08:02:38;;;;;;;;;;;;;;;21.21;37.93;99575.47;5031478;28;922;-57
2022/04/06 08:05:04;;;;;;;;;;;;;;;21.16;38.04;99572.53;5031611;28;806;-57
2022/04/06 08:07:32;;;;;;;;;;;;;;;21.22;37.65;99570.63;5031326;28;929;-56
2022/04/06 08:09:59;;;;;;;;;;;;;;;21.13;38.16;99571.47;5031487;28;823;-56
2022/04/06 08:12:26;;;;;;;;;;;;;;;21.48;37.24;99570.88;5031432;28;850;-57
2022/04/06 08:14:53;;;;;;;;;;;;;;;21.52;37.83;99567.88;5031319;28;934;-57
2022/04/06 08:17:20;;;;;;;;;;;;;;;21.57;36.96;99570.78;5031314;28;1890;-56
2022/04/06 08:19:46;;;;;;;;;;;;;;;21.21;34.90;99564.22;5031420;28;870;-56
2022/04/06 08:22:13;;;;;;;;;;;;;;;21.25;38.38;99560.44;5031479;28;834;-56
2022/04/06 08:24:39;;;;;;;;;;;;;;;21.42;36.26;99564.34;5031382;28;1161;-56
2022/04/06 08:27:07;;;;;;;;;;;;;;;21.74;35.65;99573.91;5031155;28;1424;-56
2022/04/06 08:29:34;;;;;;;;;;;;;;;21.79;34.59;99559.16;5031594;28;877;-56
2022/04/06 08:32:00;;;;;;;;;;;;;;;21.88;33.54;99572.31;5031327;28;834;-56
2022/04/06 08:34:27;;;;;;;;;;;;;;;21.96;33.70;99558.66;5031359;28;881;-56
2022/04/06 08:36:54;;;;;;;;;;;;;;;21.63;34.23;99562.44;5031279;28;1974;-56
2022/04/06 08:39:20;;;;;;;;;;;;;;;21.63;35.60;99551.19;5031145;28;839;-56
2022/04/06 08:41:47;;;;;;;;;;;;;;;21.76;34.10;99553.72;5031184;28;902;-56
2022/04/06 08:44:24;;;;;;;;;;;;;;;21.40;33.98;99555.59;5031154;28;854;-56
2022/04/06 08:46:50;;;;;;;;;;;;;;;21.32;35.30;99540.41;5031035;28;851;-56
2022/04/06 08:49:19;;;;;;;;;;;;;;;21.51;34.18;99539.00;5031218;28;814;-56
2022/04/06 08:51:47;;;;;;;;;;;;;;;21.59;34.93;99544.97;5031150;28;794;-56
2022/04/06 08:54:14;;;;;;;;;;;;;;;21.73;32.74;99541.41;5031102;28;833;-56
2022/04/06 08:56:40;;;;;;;;;;;;;;;22.06;30.41;99533.97;5029740;28;1947;-56
2022/04/06 08:59:07;;;;;;;;;;;;;;;21.90;31.03;99535.28;5031837;28;846;-56
2022/04/06 09:01:34;;;;;;;;;;;;;;;22.27;32.90;99538.41;5033377;28;1196;-56
2022/04/06 09:04:00;;;;;;;;;;;;;;;22.30;32.33;99531.81;5034625;28;934;-56
2022/04/06 09:06:32;;;;;;;;;;;;;;;21.74;30.09;99534.53;5034830;28;798;-56
2022/04/06 09:08:59;;;;;;;;;;;;;;;21.91;30.58;99520.72;5034546;28;925;-56
2022/04/06 09:11:28;;;;;;;;;;;;;;;22.11;29.19;99524.84;5034514;28;870;-56
2022/04/06 09:13:59;;;;;;;;;;;;;;;21.99;30.16;99521.09;5034404;28;968;-57
2022/04/06 09:16:32;;;;;;;;;;;;;;;21.73;31.00;99529.38;5034316;28;1886;-56
2022/04/06 09:19:06;;;;;;;;;;;;;;;21.71;30.28;99517.84;5034559;28;826;-56
2022/04/06 09:21:38;;;;;;;;;;;;;;;21.89;30.24;99514.03;5034606;28;917;-56
2022/04/06 09:24:04;;;;;;;;;;;;;;;21.77;29.12;99516.66;5034367;28;858;-56
2022/04/06 09:26:32;;;;;;;;;;;;;;;21.57;29.39;99510.94;5034194;28;1457;-56
2022/04/06 09:28:58;;;;;;;;;;;;;;;21.46;28.25;99503.09;5034214;28;819;-56
2022/04/06 09:31:25;;;;;;;;;;;;;;;21.17;32.26;99509.47;5034096;28;955;-56
2022/04/06 09:33:59;;;;;;;;;;;;;;;21.38;32.95;99508.31;5034183;28;913;-56
2022/04/06 09:36:28;;;;;;;;;;;;;;;21.19;28.26;99504.91;5033930;28;1977;-56
2022/04/06 09:38:54;;;;;;;;;;;;;;;21.10;30.10;99507.03;5034764;28;837;-56
2022/04/06 09:41:21;;;;;;;;;;;;;;;21.11;29.77;99505.78;5033913;28;914;-56
2022/04/06 09:43:50;;;;;;;;;;;;;;;20.96;27.44;99505.75;5034150;28;1173;-56
2022/04/06 09:49:08;;;;;;;;;;;;;;;20.74;26.78;99501.25;5034162;28;621;-56
2022/04/06 09:51:36;;;;;;;;;;;;;;;20.56;29.01;99504.94;5033715;28;964;-56
2022/04/06 09:54:03;;;;;;;;;;;;;;;20.85;30.08;99503.50;5032597;28;874;-56
2022/04/06 09:56:31;;;;;;;;;;;;;;;21.10;28.43;99505.00;5033680;28;1886;-56
2022/04/06 10:25:14;;;;;;;;;;;;;;;21.80;29.06;99481.91;6100210;22;1688;-57
2022/04/06 10:27:44;;;;;;;;;;;;;;;21.91;28.50;99484.16;5013404;28;810;-57
2022/04/06 10:30:18;;;;;;;;;;;;;;;22.02;27.71;99475.88;5013670;28;802;-56
2022/04/06 10:32:46;;;;;;;;;;;;;;;21.91;27.12;99474.91;5013246;28;897;-57
2022/04/06 10:35:23;;;;;;;;;;;;;;;21.78;26.08;99475.25;5013346;28;786;-56
2022/04/06 10:37:50;;;;;;;;;;;;;;;21.84;27.30;99476.09;5012979;28;1910;-56
2022/04/06 10:40:17;;;;;;;;;;;;;;;21.66;26.35;99471.50;5013079;28;911;-56
2022/04/06 10:42:46;;;;;;;;;;;;;;;21.36;26.25;99476.34;5013004;28;925;-57
2022/04/06 10:45:29;;;;;;;;;;;;;;;21.22;29.38;99483.50;5013660;28;779;-56
2022/04/06 10:48:14;;;;;;;;;;;;;;;21.27;30.31;99470.78;5012881;28;843;-56
2022/04/06 10:50:42;;;;;;;;;;;;;;;21.35;27.38;99467.13;5013006;28;894;-56
2022/04/06 10:53:20;;;;;;;;;;;;;;;21.26;27.02;99469.25;5012866;28;790;-56
2022/04/06 10:56:06;;;;;;;;;;;;;;;21.56;27.34;99470.81;5012781;28;1886;-57
2022/04/06 10:58:50;;;;;;;;;;;;;;;21.85;25.89;99460.00;5013276;28;947;-56
2022/04/06 11:01:17;;;;;;;;;;;;;;;21.88;25.10;99461.84;5012745;28;937;-57
2022/04/06 11:04:05;;;;;;;;;;;;;;;21.99;25.49;99465.56;5012724;28;836;-56
2022/04/06 11:06:45;;;;;;;;;;;;;;;22.08;27.34;99455.47;5001949;28;1118;-56
2022/04/06 11:12:17;;;;;;;;;;;;;;;22.21;26.31;99462.31;5012643;28;673;-57
2022/04/06 11:14:45;;;;;;;;;;;;;;;22.22;27.04;99461.06;5012551;28;810;-56
2022/04/06 11:17:44;;;;;;;;;;;;;;;22.39;27.43;99447.22;5012481;28;1949;-57
2022/04/06 11:20:14;;;;;;;;;;;;;;;22.59;26.46;99460.50;5012395;28;850;-57
2022/04/06 11:22:43;;;;;;;;;;;;;;;22.33;25.87;99449.19;5012141;28;873;-56
2022/04/06 11:25:11;;;;;;;;;;;;;;;22.12;25.32;99444.78;5012263;28;1050;-57
2022/04/06 11:27:39;;;;;;;;;;;;;;;22.15;27.20;99438.94;5050984;28;1429;-56
2022/04/06 11:30:13;;;;;;;;;;;;;;;22.48;27.28;99437.09;5051869;28;870;-57
2022/04/06 11:32:39;;;;;;;;;;;;;;;22.74;26.98;99440.69;5051743;28;894;-57
2022/04/06 11:35:07;;;;;;;;;;;;;;;22.79;27.30;99431.53;5051815;28;857;-57
2022/04/06 11:37:41;;;;;;;;;;;;;;;22.73;29.70;99432.75;5051720;28;1910;-57
2022/04/06 11:40:08;;;;;;;;;;;;;;;22.56;26.57;99430.53;5051706;28;806;-57
2022/04/06 11:42:35;;;;;;;;;;;;;;;22.73;26.80;99419.44;5051975;28;810;-56
2022/04/06 11:45:02;;;;;;;;;;;;;;;22.92;29.38;99417.06;5051713;28;876;-56
2022/04/06 11:47:30;;;;;;;;;;;;;;;22.93;26.76;99421.44;5051605;28;798;-56
2022/04/06 11:49:58;;;;;;;;;;;;;;;22.93;25.89;99423.47;5051570;28;806;-57
2022/04/06 11:52:25;;;;;;;;;;;;;;;22.80;26.96;99416.19;5051667;28;802;-57
2022/04/06 11:54:52;;;;;;;;;;;;;;;22.87;28.47;99414.19;5051997;28;798;-57
2022/04/06 11:57:19;;;;;;;;;;;;;;;22.90;29.55;99416.81;5051538;28;1886;-57
2022/04/06 11:59:55;;;;;;;;;;;;;;;22.69;27.99;99418.88;5051578;28;1247;-57
2022/04/06 12:02:22;;;;;;;;;;;;;;;22.58;28.27;99419.53;5051531;28;834;-57
2022/04/06 12:05:02;;;;;;;;;;;;;;;22.49;28.47;99421.72;5051409;28;834;-57
2022/04/06 12:07:30;;;;;;;;;;;;;;;22.62;27.22;99417.28;5051636;28;1997;-57
2022/04/06 12:09:57;;;;;;;;;;;;;;;23.03;27.71;99414.38;5051524;28;842;-56
2022/04/06 12:12:24;;;;;;;;;;;;;;;23.22;26.56;99408.41;5051520;28;843;-57
2022/04/06 12:14:52;;;;;;;;;;;;;;;23.48;24.96;99401.94;5051368;28;1014;-57
2022/04/06 12:17:20;;;;;;;;;;;;;;;23.52;25.83;99402.50;5051264;28;862;-56
2022/04/06 12:19:45;;;;;;;;;;;;;;;23.88;25.58;99395.31;5051302;28;892;-57
2022/04/06 12:22:12;;;;;;;;;;;;;;;23.47;24.10;99387.06;5051453;28;841;-57
2022/04/06 12:24:39;;;;;;;;;;;;;;;23.21;25.89;99384.28;5051335;28;1055;-57
2022/04/06 12:27:06;;;;;;;;;;;;;;;23.21;25.66;99401.22;5051077;28;1966;-56
2022/04/06 12:29:35;;;;;;;;;;;;;;;23.14;24.83;99362.22;5051406;28;848;-56
2022/04/06 12:32:03;;;;;;;;;;;;;;;23.60;26.24;99384.59;5051361;28;968;-57
2022/04/06 12:34:30;;;;;;;;;;;;;;;23.56;24.79;99383.28;5036502;28;874;-57
2022/04/06 12:36:57;;;;;;;;;;;;;;;23.41;26.22;99383.44;5055349;28;941;-57
2022/04/06 12:39:24;;;;;;;;;;;;;;;23.41;25.60;99384.22;5055058;28;878;-57
2022/04/06 12:41:55;;;;;;;;;;;;;;;23.33;24.48;99385.16;5055123;28;822;-57
2022/04/06 12:44:22;;;;;;;;;;;;;;;23.23;24.88;99376.09;5054958;28;893;-57
2022/04/06 12:46:50;;;;;;;;;;;;;;;23.48;25.68;99373.75;5054858;28;1878;-57
2022/04/06 12:49:23;;;;;;;;;;;;;;;23.26;24.67;99375.13;5054960;28;873;-57
2022/04/06 12:52:08;;;;;;;;;;;;;;;23.40;24.74;99367.78;5055199;28;834;-57
2022/04/06 12:54:36;;;;;;;;;;;;;;;23.78;25.00;99358.03;5054593;28;898;-57
2022/04/06 12:57:05;;;;;;;;;;;;;;;23.77;25.09;99364.97;5054774;28;846;-57
2022/04/06 12:59:38;;;;;;;;;;;;;;;23.47;25.08;99361.69;5036875;28;1564;-57
2022/04/06 13:02:17;;;;;;;;;;;;;;;23.08;23.57;99364.22;5054896;28;889;-57
2022/04/06 13:04:44;;;;;;;;;;;;;;;23.01;24.90;99356.97;5054552;28;887;-57
2022/04/06 13:07:12;;;;;;;;;;;;;;;22.89;27.63;99352.47;5054477;28;1945;-57
2022/04/06 13:09:52;;;;;;;;;;;;;;;22.91;28.29;99356.34;5054508;28;855;-57
2022/04/06 13:12:20;;;;;;;;;;;;;;;22.75;28.64;99368.25;5054632;28;917;-56
2022/04/06 13:14:46;;;;;;;;;;;;;;;22.49;28.92;99356.94;5054516;28;834;-57
2022/04/06 13:17:14;;;;;;;;;;;;;;;22.59;28.27;99361.94;5054368;28;845;-56
2022/04/06 13:19:40;;;;;;;;;;;;;;;22.54;28.26;99356.25;5054582;28;1038;-56
2022/04/06 13:22:07;;;;;;;;;;;;;;;22.61;29.52;99359.38;5054332;28;933;-56
2022/04/06 13:24:35;;;;;;;;;;;;;;;22.58;28.01;99360.41;5054309;28;810;-56
2022/04/06 13:27:02;;;;;;;;;;;;;;;22.51;28.76;99354.41;5053812;28;1898;-56
2022/04/06 13:29:29;;;;;;;;;;;;;;;22.39;28.17;99359.16;5054106;28;924;-56
2022/04/06 13:31:56;;;;;;;;;;;;;;;22.31;29.21;99355.22;5054097;28;829;-56
2022/04/06 13:34:23;;;;;;;;;;;;;;;22.65;29.02;99352.78;5054100;28;842;-56
2022/04/06 13:36:49;;;;;;;;;;;;;;;22.70;28.86;99350.00;5036162;28;854;-56
2022/04/06 13:39:17;;;;;;;;;;;;;;;22.59;28.73;99361.16;5053959;28;845;-56
2022/04/06 13:41:44;;;;;;;;;;;;;;;22.34;28.97;99354.22;5054013;28;826;-57
2022/04/06 13:44:11;;;;;;;;;;;;;;;22.22;30.98;99345.66;5053766;28;1216;-56
2022/04/06 13:46:38;;;;;;;;;;;;;;;22.38;30.13;99354.78;5053136;28;1902;-57